sensor_id;sensor_type;location;lat;lon;timestamp;P1;durP1;ratioP1;P2;durP2;ratioP2
12980;SDS011;6555;50.468;8.480;2024-01-16T00:00:27;2.33;;;1.60;;
12980;SDS011;6555;50.468;8.480;2024-01-16T00:05:30;2.17;;;1.40;;
12980;SDS011;6555;50.468;8.480;2024-01-16T00:10:33;5.33;;;1.50;;
12980;SDS011;6555;50.468;8.480;2024-01-16T00:15:38;2.33;;;1.30;;
12980;SDS011;6555;50.468;8.480;2024-01-16T00:20:42;3.30;;;1.77;;
12980;SDS011;6555;50.468;8.480;2024-01-16T00:25:46;3.70;;;1.67;;
12980;SDS011;6555;50.468;8.480;2024-01-16T00:30:50;3.37;;;1.63;;
12980;SDS011;6555;50.468;8.480;2024-01-16T00:35:53;5.63;;;2.20;;
12980;SDS011;6555;50.468;8.480;2024-01-16T00:40:56;3.87;;;2.17;;
12980;SDS011;6555;50.468;8.480;2024-01-16T00:46:01;3.13;;;1.90;;
12980;SDS011;6555;50.468;8.480;2024-01-16T00:51:04;2.97;;;1.53;;
12980;SDS011;6555;50.468;8.480;2024-01-16T00:56:07;5.20;;;1.90;;
12980;SDS011;6555;50.468;8.480;2024-01-16T01:01:12;1.53;;;1.30;;
12980;SDS011;6555;50.468;8.480;2024-01-16T01:06:15;4.23;;;1.90;;
12980;SDS011;6555;50.468;8.480;2024-01-16T01:11:18;3.03;;;1.90;;
12980;SDS011;6555;50.468;8.480;2024-01-16T01:16:23;3.83;;;2.00;;
12980;SDS011;6555;50.468;8.480;2024-01-16T01:21:26;2.50;;;1.60;;
12980;SDS011;6555;50.468;8.480;2024-01-16T01:26:29;2.07;;;1.80;;
12980;SDS011;6555;50.468;8.480;2024-01-16T01:31:33;3.60;;;2.07;;
12980;SDS011;6555;50.468;8.480;2024-01-16T01:36:36;3.40;;;1.80;;
12980;SDS011;6555;50.468;8.480;2024-01-16T01:41:39;3.93;;;2.00;;
12980;SDS011;6555;50.468;8.480;2024-01-16T01:46:44;2.13;;;1.77;;
12980;SDS011;6555;50.468;8.480;2024-01-16T01:51:47;6.60;;;2.37;;
12980;SDS011;6555;50.468;8.480;2024-01-16T01:56:51;3.57;;;1.70;;
12980;SDS011;6555;50.468;8.480;2024-01-16T02:01:56;3.87;;;2.13;;
12980;SDS011;6555;50.468;8.480;2024-01-16T02:07:00;2.53;;;1.43;;
12980;SDS011;6555;50.468;8.480;2024-01-16T02:12:04;2.30;;;1.50;;
12980;SDS011;6555;50.468;8.480;2024-01-16T02:17:10;3.40;;;1.80;;
12980;SDS011;6555;50.468;8.480;2024-01-16T02:22:15;2.43;;;1.40;;
12980;SDS011;6555;50.468;8.480;2024-01-16T02:27:23;3.87;;;1.77;;
12980;SDS011;6555;50.468;8.480;2024-01-16T02:32:26;4.10;;;2.10;;
12980;SDS011;6555;50.468;8.480;2024-01-16T02:37:29;2.17;;;1.77;;
12980;SDS011;6555;50.468;8.480;2024-01-16T02:42:34;2.80;;;1.90;;
12980;SDS011;6555;50.468;8.480;2024-01-16T02:47:38;4.33;;;1.80;;
12980;SDS011;6555;50.468;8.480;2024-01-16T02:52:42;5.17;;;1.87;;
12980;SDS011;6555;50.468;8.480;2024-01-16T02:57:46;3.60;;;1.70;;
12980;SDS011;6555;50.468;8.480;2024-01-16T03:02:49;1.83;;;1.63;;
12980;SDS011;6555;50.468;8.480;2024-01-16T03:07:52;4.17;;;1.70;;
12980;SDS011;6555;50.468;8.480;2024-01-16T03:12:56;3.27;;;2.20;;
12980;SDS011;6555;50.468;8.480;2024-01-16T03:18:00;2.80;;;1.90;;
12980;SDS011;6555;50.468;8.480;2024-01-16T03:23:03;4.30;;;1.97;;
12980;SDS011;6555;50.468;8.480;2024-01-16T03:28:08;2.17;;;1.73;;
12980;SDS011;6555;50.468;8.480;2024-01-16T03:33:12;6.37;;;2.00;;
12980;SDS011;6555;50.468;8.480;2024-01-16T03:38:15;3.03;;;1.87;;
12980;SDS011;6555;50.468;8.480;2024-01-16T03:43:20;5.97;;;2.57;;
12980;SDS011;6555;50.468;8.480;2024-01-16T03:48:23;2.83;;;2.00;;
12980;SDS011;6555;50.468;8.480;2024-01-16T03:53:26;3.03;;;1.90;;
12980;SDS011;6555;50.468;8.480;2024-01-16T03:58:31;4.83;;;2.23;;
12980;SDS011;6555;50.468;8.480;2024-01-16T04:03:34;3.63;;;2.50;;
12980;SDS011;6555;50.468;8.480;2024-01-16T04:08:37;3.43;;;2.07;;
12980;SDS011;6555;50.468;8.480;2024-01-16T04:13:41;6.83;;;2.17;;
12980;SDS011;6555;50.468;8.480;2024-01-16T04:18:44;2.90;;;2.03;;
12980;SDS011;6555;50.468;8.480;2024-01-16T04:23:48;5.67;;;2.00;;
12980;SDS011;6555;50.468;8.480;2024-01-16T04:28:52;3.47;;;2.30;;
12980;SDS011;6555;50.468;8.480;2024-01-16T04:33:56;3.20;;;2.20;;
12980;SDS011;6555;50.468;8.480;2024-01-16T04:38:59;3.13;;;1.80;;
12980;SDS011;6555;50.468;8.480;2024-01-16T04:44:03;4.60;;;2.43;;
12980;SDS011;6555;50.468;8.480;2024-01-16T04:49:07;3.13;;;2.30;;
12980;SDS011;6555;50.468;8.480;2024-01-16T04:54:10;5.00;;;2.20;;
12980;SDS011;6555;50.468;8.480;2024-01-16T04:59:16;3.83;;;2.10;;
12980;SDS011;6555;50.468;8.480;2024-01-16T05:04:19;2.70;;;1.90;;
12980;SDS011;6555;50.468;8.480;2024-01-16T05:09:22;4.83;;;2.50;;
12980;SDS011;6555;50.468;8.480;2024-01-16T05:14:26;4.17;;;2.13;;
12980;SDS011;6555;50.468;8.480;2024-01-16T05:19:29;3.13;;;2.20;;
12980;SDS011;6555;50.468;8.480;2024-01-16T05:24:33;5.03;;;2.03;;
12980;SDS011;6555;50.468;8.480;2024-01-16T05:29:37;4.73;;;2.43;;
12980;SDS011;6555;50.468;8.480;2024-01-16T05:34:45;4.20;;;2.27;;
12980;SDS011;6555;50.468;8.480;2024-01-16T05:39:48;5.13;;;2.47;;
12980;SDS011;6555;50.468;8.480;2024-01-16T05:44:52;3.10;;;2.27;;
12980;SDS011;6555;50.468;8.480;2024-01-16T05:49:56;3.50;;;2.60;;
12980;SDS011;6555;50.468;8.480;2024-01-16T05:54:59;4.23;;;2.47;;
12980;SDS011;6555;50.468;8.480;2024-01-16T06:00:06;4.77;;;2.83;;
12980;SDS011;6555;50.468;8.480;2024-01-16T06:05:09;4.87;;;2.70;;
12980;SDS011;6555;50.468;8.480;2024-01-16T06:10:13;2.97;;;1.80;;
12980;SDS011;6555;50.468;8.480;2024-01-16T06:15:17;3.30;;;2.17;;
12980;SDS011;6555;50.468;8.480;2024-01-16T06:20:20;2.97;;;2.00;;
12980;SDS011;6555;50.468;8.480;2024-01-16T06:25:25;5.43;;;2.00;;
12980;SDS011;6555;50.468;8.480;2024-01-16T06:30:29;6.03;;;2.13;;
12980;SDS011;6555;50.468;8.480;2024-01-16T06:35:33;3.13;;;2.00;;
12980;SDS011;6555;50.468;8.480;2024-01-16T06:40:36;2.10;;;1.90;;
12980;SDS011;6555;50.468;8.480;2024-01-16T06:45:41;2.40;;;1.80;;
12980;SDS011;6555;50.468;8.480;2024-01-16T06:50:44;5.00;;;2.30;;
12980;SDS011;6555;50.468;8.480;2024-01-16T06:55:47;4.03;;;2.40;;
12980;SDS011;6555;50.468;8.480;2024-01-16T07:00:52;6.83;;;2.47;;
12980;SDS011;6555;50.468;8.480;2024-01-16T07:05:55;5.33;;;2.30;;
12980;SDS011;6555;50.468;8.480;2024-01-16T07:10:58;4.17;;;2.70;;
12980;SDS011;6555;50.468;8.480;2024-01-16T07:16:03;3.63;;;2.67;;
12980;SDS011;6555;50.468;8.480;2024-01-16T07:21:15;5.70;;;2.70;;
12980;SDS011;6555;50.468;8.480;2024-01-16T07:26:19;3.27;;;2.40;;
12980;SDS011;6555;50.468;8.480;2024-01-16T07:31:24;2.57;;;1.73;;
12980;SDS011;6555;50.468;8.480;2024-01-16T07:36:28;2.80;;;1.70;;
12980;SDS011;6555;50.468;8.480;2024-01-16T07:41:31;3.30;;;1.83;;
12980;SDS011;6555;50.468;8.480;2024-01-16T07:46:36;3.27;;;1.80;;
12980;SDS011;6555;50.468;8.480;2024-01-16T07:51:39;2.63;;;1.80;;
12980;SDS011;6555;50.468;8.480;2024-01-16T07:56:42;2.17;;;1.70;;
12980;SDS011;6555;50.468;8.480;2024-01-16T08:01:46;3.40;;;1.83;;
12980;SDS011;6555;50.468;8.480;2024-01-16T08:06:50;4.57;;;2.37;;
12980;SDS011;6555;50.468;8.480;2024-01-16T08:11:53;4.27;;;2.03;;
12980;SDS011;6555;50.468;8.480;2024-01-16T08:16:58;3.43;;;2.20;;
12980;SDS011;6555;50.468;8.480;2024-01-16T08:22:01;3.73;;;2.50;;
12980;SDS011;6555;50.468;8.480;2024-01-16T08:27:08;3.30;;;2.20;;
12980;SDS011;6555;50.468;8.480;2024-01-16T08:32:12;3.13;;;2.27;;
12980;SDS011;6555;50.468;8.480;2024-01-16T08:37:15;2.73;;;1.73;;
12980;SDS011;6555;50.468;8.480;2024-01-16T08:42:18;3.50;;;1.90;;
12980;SDS011;6555;50.468;8.480;2024-01-16T08:47:23;1.90;;;1.50;;
12980;SDS011;6555;50.468;8.480;2024-01-16T08:52:26;1.70;;;1.60;;
12980;SDS011;6555;50.468;8.480;2024-01-16T08:57:29;3.03;;;1.67;;
12980;SDS011;6555;50.468;8.480;2024-01-16T09:02:33;2.70;;;1.57;;
12980;SDS011;6555;50.468;8.480;2024-01-16T09:07:36;2.43;;;1.50;;
12980;SDS011;6555;50.468;8.480;2024-01-16T09:12:39;1.77;;;1.33;;
12980;SDS011;6555;50.468;8.480;2024-01-16T09:17:44;1.73;;;1.30;;
12980;SDS011;6555;50.468;8.480;2024-01-16T09:22:47;3.03;;;1.77;;
12980;SDS011;6555;50.468;8.480;2024-01-16T09:27:50;5.50;;;1.83;;
12980;SDS011;6555;50.468;8.480;2024-01-16T09:32:55;2.80;;;1.63;;
12980;SDS011;6555;50.468;8.480;2024-01-16T09:37:59;4.07;;;2.20;;
12980;SDS011;6555;50.468;8.480;2024-01-16T09:43:02;4.57;;;1.73;;
12980;SDS011;6555;50.468;8.480;2024-01-16T09:48:07;4.13;;;1.90;;
12980;SDS011;6555;50.468;8.480;2024-01-16T09:53:11;2.43;;;1.73;;
12980;SDS011;6555;50.468;8.480;2024-01-16T09:58:14;2.73;;;1.90;;
12980;SDS011;6555;50.468;8.480;2024-01-16T10:03:25;2.60;;;2.03;;
12980;SDS011;6555;50.468;8.480;2024-01-16T10:08:31;4.80;;;2.10;;
12980;SDS011;6555;50.468;8.480;2024-01-16T10:13:34;2.60;;;1.73;;
12980;SDS011;6555;50.468;8.480;2024-01-16T10:18:40;1.87;;;1.50;;
12980;SDS011;6555;50.468;8.480;2024-01-16T10:23:45;2.50;;;1.50;;
12980;SDS011;6555;50.468;8.480;2024-01-16T10:28:48;6.53;;;1.90;;
12980;SDS011;6555;50.468;8.480;2024-01-16T10:33:53;4.27;;;2.40;;
12980;SDS011;6555;50.468;8.480;2024-01-16T10:39:02;4.03;;;2.00;;
12980;SDS011;6555;50.468;8.480;2024-01-16T10:44:07;3.53;;;1.93;;
12980;SDS011;6555;50.468;8.480;2024-01-16T10:49:11;3.57;;;1.73;;
12980;SDS011;6555;50.468;8.480;2024-01-16T10:54:15;2.33;;;1.63;;
12980;SDS011;6555;50.468;8.480;2024-01-16T10:59:18;1.90;;;1.50;;
12980;SDS011;6555;50.468;8.480;2024-01-16T11:04:27;3.20;;;1.60;;
12980;SDS011;6555;50.468;8.480;2024-01-16T11:09:31;3.47;;;1.67;;
12980;SDS011;6555;50.468;8.480;2024-01-16T11:14:36;3.47;;;1.93;;
12980;SDS011;6555;50.468;8.480;2024-01-16T11:19:42;3.17;;;1.53;;
12980;SDS011;6555;50.468;8.480;2024-01-16T11:25:08;1.87;;;1.57;;
12980;SDS011;6555;50.468;8.480;2024-01-16T11:30:12;2.03;;;1.70;;
12980;SDS011;6555;50.468;8.480;2024-01-16T11:35:34;2.07;;;1.50;;
12980;SDS011;6555;50.468;8.480;2024-01-16T11:40:39;2.00;;;1.30;;
12980;SDS011;6555;50.468;8.480;2024-01-16T11:45:49;2.90;;;1.40;;
12980;SDS011;6555;50.468;8.480;2024-01-16T11:50:56;1.47;;;1.27;;
12980;SDS011;6555;50.468;8.480;2024-01-16T11:56:06;4.60;;;1.70;;
12980;SDS011;6555;50.468;8.480;2024-01-16T12:01:44;4.63;;;2.20;;
12980;SDS011;6555;50.468;8.480;2024-01-16T12:06:57;2.93;;;1.73;;
12980;SDS011;6555;50.468;8.480;2024-01-16T12:12:02;2.13;;;1.30;;
12980;SDS011;6555;50.468;8.480;2024-01-16T12:17:09;3.47;;;1.60;;
12980;SDS011;6555;50.468;8.480;2024-01-16T12:22:15;3.53;;;1.30;;
12980;SDS011;6555;50.468;8.480;2024-01-16T12:27:19;5.70;;;1.70;;
12980;SDS011;6555;50.468;8.480;2024-01-16T12:32:23;3.20;;;1.40;;
12980;SDS011;6555;50.468;8.480;2024-01-16T12:37:27;1.60;;;1.23;;
12980;SDS011;6555;50.468;8.480;2024-01-16T12:42:31;2.97;;;1.70;;
12980;SDS011;6555;50.468;8.480;2024-01-16T12:47:34;2.97;;;1.60;;
12980;SDS011;6555;50.468;8.480;2024-01-16T12:52:39;3.97;;;1.70;;
12980;SDS011;6555;50.468;8.480;2024-01-16T12:57:44;3.77;;;1.70;;
12980;SDS011;6555;50.468;8.480;2024-01-16T13:02:49;2.50;;;1.40;;
12980;SDS011;6555;50.468;8.480;2024-01-16T13:13:21;2.57;;;1.50;;
12980;SDS011;6555;50.468;8.480;2024-01-16T13:18:25;2.30;;;1.37;;
12980;SDS011;6555;50.468;8.480;2024-01-16T13:23:32;1.87;;;1.33;;
12980;SDS011;6555;50.468;8.480;2024-01-16T13:28:36;1.20;;;1.10;;
12980;SDS011;6555;50.468;8.480;2024-01-16T13:33:40;1.40;;;1.30;;
12980;SDS011;6555;50.468;8.480;2024-01-16T13:38:46;2.27;;;1.03;;
12980;SDS011;6555;50.468;8.480;2024-01-16T13:43:49;1.17;;;1.00;;
12980;SDS011;6555;50.468;8.480;2024-01-16T13:48:52;1.50;;;0.80;;
12980;SDS011;6555;50.468;8.480;2024-01-16T13:53:57;1.47;;;1.00;;
12980;SDS011;6555;50.468;8.480;2024-01-16T13:59:00;1.50;;;1.07;;
12980;SDS011;6555;50.468;8.480;2024-01-16T14:04:03;1.37;;;1.17;;
12980;SDS011;6555;50.468;8.480;2024-01-16T14:09:08;2.83;;;1.40;;
12980;SDS011;6555;50.468;8.480;2024-01-16T14:14:11;5.83;;;1.53;;
12980;SDS011;6555;50.468;8.480;2024-01-16T14:19:15;2.07;;;1.57;;
12980;SDS011;6555;50.468;8.480;2024-01-16T14:24:20;2.43;;;1.50;;
12980;SDS011;6555;50.468;8.480;2024-01-16T14:29:24;2.00;;;1.40;;
12980;SDS011;6555;50.468;8.480;2024-01-16T14:34:28;3.13;;;1.83;;
12980;SDS011;6555;50.468;8.480;2024-01-16T14:39:32;3.63;;;1.67;;
12980;SDS011;6555;50.468;8.480;2024-01-16T14:44:39;3.00;;;1.87;;
12980;SDS011;6555;50.468;8.480;2024-01-16T14:49:42;2.43;;;1.47;;
12980;SDS011;6555;50.468;8.480;2024-01-16T14:54:46;4.27;;;1.87;;
12980;SDS011;6555;50.468;8.480;2024-01-16T14:59:51;3.90;;;1.87;;
12980;SDS011;6555;50.468;8.480;2024-01-16T15:04:54;3.73;;;1.80;;
12980;SDS011;6555;50.468;8.480;2024-01-16T15:09:59;4.00;;;2.03;;
12980;SDS011;6555;50.468;8.480;2024-01-16T15:15:02;4.77;;;1.50;;
12980;SDS011;6555;50.468;8.480;2024-01-16T15:20:07;3.33;;;1.73;;
12980;SDS011;6555;50.468;8.480;2024-01-16T15:25:12;3.40;;;1.70;;
12980;SDS011;6555;50.468;8.480;2024-01-16T15:30:18;2.43;;;1.50;;
12980;SDS011;6555;50.468;8.480;2024-01-16T15:35:23;3.57;;;1.90;;
12980;SDS011;6555;50.468;8.480;2024-01-16T15:40:27;1.93;;;1.20;;
12980;SDS011;6555;50.468;8.480;2024-01-16T15:45:30;1.90;;;1.13;;
12980;SDS011;6555;50.468;8.480;2024-01-16T15:50:34;1.70;;;1.17;;
12980;SDS011;6555;50.468;8.480;2024-01-16T15:55:39;2.27;;;1.10;;
12980;SDS011;6555;50.468;8.480;2024-01-16T16:00:42;2.83;;;1.40;;
12980;SDS011;6555;50.468;8.480;2024-01-16T16:05:45;2.03;;;1.33;;
12980;SDS011;6555;50.468;8.480;2024-01-16T16:10:49;2.27;;;1.27;;
12980;SDS011;6555;50.468;8.480;2024-01-16T16:15:53;2.47;;;2.13;;
12980;SDS011;6555;50.468;8.480;2024-01-16T16:20:58;1.73;;;1.57;;
12980;SDS011;6555;50.468;8.480;2024-01-16T16:26:04;2.63;;;1.80;;
12980;SDS011;6555;50.468;8.480;2024-01-16T16:31:07;2.73;;;1.50;;
12980;SDS011;6555;50.468;8.480;2024-01-16T16:36:11;2.97;;;1.93;;
12980;SDS011;6555;50.468;8.480;2024-01-16T16:41:17;3.30;;;2.43;;
12980;SDS011;6555;50.468;8.480;2024-01-16T16:46:22;4.23;;;1.83;;
12980;SDS011;6555;50.468;8.480;2024-01-16T16:51:25;6.73;;;2.37;;
12980;SDS011;6555;50.468;8.480;2024-01-16T16:56:31;2.30;;;1.80;;
12980;SDS011;6555;50.468;8.480;2024-01-16T17:01:34;2.00;;;1.63;;
12980;SDS011;6555;50.468;8.480;2024-01-16T17:06:39;2.17;;;1.60;;
12980;SDS011;6555;50.468;8.480;2024-01-16T17:11:44;3.30;;;2.23;;
12980;SDS011;6555;50.468;8.480;2024-01-16T17:16:47;3.43;;;2.73;;
12980;SDS011;6555;50.468;8.480;2024-01-16T17:21:50;4.57;;;3.00;;
12980;SDS011;6555;50.468;8.480;2024-01-16T17:26:55;4.43;;;2.47;;
12980;SDS011;6555;50.468;8.480;2024-01-16T17:31:58;4.43;;;2.43;;
12980;SDS011;6555;50.468;8.480;2024-01-16T17:37:02;3.80;;;2.50;;
12980;SDS011;6555;50.468;8.480;2024-01-16T17:42:07;4.13;;;2.40;;
12980;SDS011;6555;50.468;8.480;2024-01-16T17:47:10;4.30;;;2.23;;
12980;SDS011;6555;50.468;8.480;2024-01-16T17:52:13;4.63;;;2.90;;
12980;SDS011;6555;50.468;8.480;2024-01-16T17:57:18;4.43;;;2.60;;
12980;SDS011;6555;50.468;8.480;2024-01-16T18:02:21;5.83;;;2.30;;
12980;SDS011;6555;50.468;8.480;2024-01-16T18:07:24;2.83;;;2.00;;
12980;SDS011;6555;50.468;8.480;2024-01-16T18:12:29;3.07;;;2.17;;
12980;SDS011;6555;50.468;8.480;2024-01-16T18:17:32;3.67;;;2.80;;
12980;SDS011;6555;50.468;8.480;2024-01-16T18:22:35;3.30;;;2.63;;
12980;SDS011;6555;50.468;8.480;2024-01-16T18:27:40;3.20;;;2.47;;
12980;SDS011;6555;50.468;8.480;2024-01-16T18:32:45;3.30;;;2.13;;
12980;SDS011;6555;50.468;8.480;2024-01-16T18:37:49;2.17;;;1.73;;
12980;SDS011;6555;50.468;8.480;2024-01-16T18:42:55;2.37;;;1.90;;
12980;SDS011;6555;50.468;8.480;2024-01-16T18:47:58;3.07;;;2.03;;
12980;SDS011;6555;50.468;8.480;2024-01-16T18:53:02;2.50;;;1.83;;
12980;SDS011;6555;50.468;8.480;2024-01-16T18:58:06;2.40;;;1.90;;
12980;SDS011;6555;50.468;8.480;2024-01-16T19:03:14;2.57;;;1.77;;
12980;SDS011;6555;50.468;8.480;2024-01-16T19:08:17;2.20;;;2.00;;
12980;SDS011;6555;50.468;8.480;2024-01-16T19:13:27;4.13;;;2.07;;
12980;SDS011;6555;50.468;8.480;2024-01-16T19:18:30;2.83;;;1.90;;
12980;SDS011;6555;50.468;8.480;2024-01-16T19:23:34;3.90;;;2.30;;
12980;SDS011;6555;50.468;8.480;2024-01-16T19:28:39;2.70;;;2.07;;
12980;SDS011;6555;50.468;8.480;2024-01-16T19:33:42;2.90;;;1.70;;
12980;SDS011;6555;50.468;8.480;2024-01-16T19:38:45;2.97;;;1.93;;
12980;SDS011;6555;50.468;8.480;2024-01-16T19:43:50;2.00;;;1.80;;
12980;SDS011;6555;50.468;8.480;2024-01-16T19:48:53;3.30;;;1.77;;
12980;SDS011;6555;50.468;8.480;2024-01-16T19:53:56;1.70;;;1.50;;
12980;SDS011;6555;50.468;8.480;2024-01-16T19:59:01;2.93;;;1.60;;
12980;SDS011;6555;50.468;8.480;2024-01-16T20:04:05;2.33;;;1.53;;
12980;SDS011;6555;50.468;8.480;2024-01-16T20:09:08;2.27;;;1.57;;
12980;SDS011;6555;50.468;8.480;2024-01-16T20:14:13;2.33;;;1.60;;
12980;SDS011;6555;50.468;8.480;2024-01-16T20:19:17;1.40;;;1.20;;
12980;SDS011;6555;50.468;8.480;2024-01-16T20:24:20;4.70;;;1.63;;
12980;SDS011;6555;50.468;8.480;2024-01-16T20:29:24;1.53;;;1.20;;
12980;SDS011;6555;50.468;8.480;2024-01-16T20:34:27;2.53;;;1.47;;
12980;SDS011;6555;50.468;8.480;2024-01-16T20:39:31;1.60;;;1.50;;
12980;SDS011;6555;50.468;8.480;2024-01-16T20:44:37;1.53;;;1.37;;
12980;SDS011;6555;50.468;8.480;2024-01-16T20:49:40;1.30;;;1.20;;
12980;SDS011;6555;50.468;8.480;2024-01-16T20:54:43;1.80;;;1.43;;
12980;SDS011;6555;50.468;8.480;2024-01-16T20:59:47;1.47;;;1.37;;
12980;SDS011;6555;50.468;8.480;2024-01-16T21:04:50;2.97;;;2.10;;
12980;SDS011;6555;50.468;8.480;2024-01-16T21:09:53;2.87;;;1.90;;
12980;SDS011;6555;50.468;8.480;2024-01-16T21:14:57;4.47;;;2.47;;
12980;SDS011;6555;50.468;8.480;2024-01-16T21:20:01;2.40;;;1.50;;
12980;SDS011;6555;50.468;8.480;2024-01-16T21:25:07;2.50;;;1.80;;
12980;SDS011;6555;50.468;8.480;2024-01-16T21:30:14;3.03;;;1.67;;
12980;SDS011;6555;50.468;8.480;2024-01-16T21:35:17;2.67;;;2.03;;
12980;SDS011;6555;50.468;8.480;2024-01-16T21:40:22;1.87;;;1.60;;
12980;SDS011;6555;50.468;8.480;2024-01-16T21:45:26;2.00;;;1.60;;
12980;SDS011;6555;50.468;8.480;2024-01-16T21:50:29;1.60;;;1.40;;
12980;SDS011;6555;50.468;8.480;2024-01-16T21:55:38;2.00;;;1.63;;
12980;SDS011;6555;50.468;8.480;2024-01-16T22:00:43;2.00;;;1.87;;
12980;SDS011;6555;50.468;8.480;2024-01-16T22:05:46;2.63;;;1.97;;
12980;SDS011;6555;50.468;8.480;2024-01-16T22:10:49;2.50;;;2.07;;
12980;SDS011;6555;50.468;8.480;2024-01-16T22:15:54;3.07;;;2.40;;
12980;SDS011;6555;50.468;8.480;2024-01-16T22:20:57;3.03;;;1.90;;
12980;SDS011;6555;50.468;8.480;2024-01-16T22:26:03;3.10;;;1.97;;
12980;SDS011;6555;50.468;8.480;2024-01-16T22:31:07;3.23;;;2.13;;
12980;SDS011;6555;50.468;8.480;2024-01-16T22:36:11;2.20;;;1.83;;
12980;SDS011;6555;50.468;8.480;2024-01-16T22:41:14;1.90;;;1.30;;
12980;SDS011;6555;50.468;8.480;2024-01-16T22:46:19;1.20;;;1.07;;
12980;SDS011;6555;50.468;8.480;2024-01-16T22:51:22;1.27;;;1.13;;
12980;SDS011;6555;50.468;8.480;2024-01-16T22:56:25;1.73;;;1.40;;
12980;SDS011;6555;50.468;8.480;2024-01-16T23:01:30;1.43;;;1.23;;
12980;SDS011;6555;50.468;8.480;2024-01-16T23:06:33;1.60;;;1.50;;
12980;SDS011;6555;50.468;8.480;2024-01-16T23:11:37;1.77;;;1.60;;
12980;SDS011;6555;50.468;8.480;2024-01-16T23:16:42;1.47;;;1.37;;
12980;SDS011;6555;50.468;8.480;2024-01-16T23:21:46;1.53;;;1.43;;
12980;SDS011;6555;50.468;8.480;2024-01-16T23:26:49;2.17;;;1.57;;
12980;SDS011;6555;50.468;8.480;2024-01-16T23:31:53;1.60;;;1.50;;
12980;SDS011;6555;50.468;8.480;2024-01-16T23:36:56;2.37;;;1.77;;
12980;SDS011;6555;50.468;8.480;2024-01-16T23:41:59;2.43;;;1.73;;
12980;SDS011;6555;50.468;8.480;2024-01-16T23:47:04;3.07;;;1.47;;
12980;SDS011;6555;50.468;8.480;2024-01-16T23:52:07;1.87;;;1.50;;
12980;SDS011;6555;50.468;8.480;2024-01-16T23:57:11;2.33;;;1.50;;
